createdAt,value
2018-12-02T00:01:22.020Z,8.89
2018-12-02T00:03:50.864Z,8.89
2018-12-02T00:06:21.960Z,8.86
2018-12-02T00:08:52.719Z,8.84
2018-12-02T00:11:21.951Z,8.82
2018-12-02T00:13:51.364Z,8.86
2018-12-02T00:16:20.951Z,8.84
2018-12-02T00:18:51.133Z,8.88
2018-12-02T00:21:21.717Z,8.88
2018-12-02T00:23:51.199Z,9.06
2018-12-02T00:26:20.765Z,8.93
2018-12-02T00:28:50.091Z,8.86
2018-12-02T00:31:19.523Z,8.84
2018-12-02T00:33:49.320Z,8.95
2018-12-02T00:36:18.763Z,8.93
2018-12-02T00:38:49.244Z,8.89
2018-12-02T00:41:18.087Z,8.89
2018-12-02T00:43:48.248Z,8.87
2018-12-02T00:46:19.243Z,8.90
2018-12-02T00:48:48.635Z,9.10
2018-12-02T00:51:18.123Z,8.93
2018-12-02T00:53:47.561Z,8.96
2018-12-02T00:56:15.011Z,9.19
2018-12-02T00:58:44.429Z,9.03
2018-12-02T01:01:13.272Z,8.97
2018-12-02T01:03:42.067Z,8.90
2018-12-02T01:06:11.551Z,9.04
2018-12-02T01:08:42.516Z,8.98
2018-12-02T01:11:11.994Z,8.92
2018-12-02T01:13:42.091Z,8.93
2018-12-02T01:16:12.568Z,8.98
2018-12-02T01:18:42.105Z,8.97
2018-12-02T01:21:11.418Z,9.11
2018-12-02T01:23:41.570Z,9.02
2018-12-02T01:26:10.455Z,9.11
2018-12-02T01:28:39.971Z,9.12
2018-12-02T01:31:08.962Z,9.02
2018-12-02T01:33:38.443Z,9.07
2018-12-02T01:36:07.321Z,9.10
2018-12-02T01:38:37.400Z,9.19
2018-12-02T01:41:06.723Z,9.18
2018-12-02T01:43:36.094Z,9.04
2018-12-02T01:46:04.880Z,9.09
2018-12-02T01:48:34.859Z,9.05
2018-12-02T01:51:04.332Z,9.04
2018-12-02T01:53:35.259Z,9.04
2018-12-02T01:56:04.160Z,8.99
2018-12-02T01:58:33.031Z,9.04
2018-12-02T02:01:03.424Z,9.26
2018-12-02T02:03:32.249Z,9.27
2018-12-02T02:06:01.263Z,9.11
2018-12-02T02:08:31.253Z,9.28
2018-12-02T02:11:00.252Z,9.32
2018-12-02T02:13:30.252Z,9.25
2018-12-02T02:15:59.905Z,9.20
2018-12-02T02:18:28.801Z,9.11
2018-12-02T02:20:58.449Z,9.10
2018-12-02T02:23:27.655Z,9.15
2018-12-02T02:25:57.615Z,9.23
2018-12-02T02:28:27.898Z,9.21
2018-12-02T02:30:57.400Z,9.22
2018-12-02T02:33:26.241Z,9.14
2018-12-02T02:35:57.051Z,9.15
2018-12-02T02:38:26.664Z,9.13
2018-12-02T02:40:56.046Z,9.11
2018-12-02T02:43:24.848Z,9.22
2018-12-02T02:45:54.168Z,9.20
2018-12-02T02:48:25.484Z,9.37
2018-12-02T02:50:55.991Z,9.38
2018-12-02T02:53:26.056Z,9.40
2018-12-02T02:55:56.505Z,9.35
2018-12-02T02:58:26.326Z,9.24
2018-12-02T03:00:55.959Z,9.24
2018-12-02T03:03:24.768Z,9.24
2018-12-02T03:05:54.372Z,9.35
2018-12-02T03:08:24.383Z,9.15
2018-12-02T03:10:54.754Z,9.39
2018-12-02T03:13:24.558Z,9.21
2018-12-02T03:15:54.539Z,9.24
2018-12-02T03:18:24.995Z,9.15
2018-12-02T03:20:55.087Z,9.15
2018-12-02T03:23:24.089Z,9.16
2018-12-02T03:25:52.977Z,9.14
2018-12-02T03:28:22.607Z,9.15
2018-12-02T03:30:51.589Z,9.27
2018-12-02T03:33:20.832Z,9.27
2018-12-02T03:35:50.188Z,9.24
2018-12-02T03:38:18.967Z,9.17
2018-12-02T03:40:49.745Z,9.15
2018-12-02T03:43:19.392Z,9.14
2018-12-02T03:45:49.805Z,9.12
2018-12-02T03:48:19.337Z,9.24
2018-12-02T03:50:48.392Z,9.20
2018-12-02T03:53:17.204Z,9.13
2018-12-02T03:55:47.348Z,9.18
2018-12-02T03:58:16.824Z,9.10
2018-12-02T04:00:46.374Z,9.09
2018-12-02T04:03:16.112Z,9.06
2018-12-02T04:05:45.536Z,9.04
2018-12-02T04:08:15.014Z,9.01
2018-12-02T04:10:44.528Z,9.10
2018-12-02T04:13:14.027Z,9.02
2018-12-02T04:15:44.335Z,9.00
2018-12-02T04:18:14.435Z,9.16
2018-12-02T04:20:44.456Z,9.02
2018-12-02T04:23:13.799Z,9.05
2018-12-02T04:25:42.730Z,9.03
2018-12-02T04:28:11.808Z,9.10
2018-12-02T04:30:42.452Z,9.01
2018-12-02T04:33:12.039Z,9.14
2018-12-02T04:35:41.816Z,9.10
2018-12-02T04:38:10.657Z,9.16
2018-12-02T04:40:39.409Z,9.11
2018-12-02T04:43:08.992Z,9.09
2018-12-02T04:45:38.503Z,9.05
2018-12-02T04:48:08.835Z,8.98
2018-12-02T04:50:37.585Z,9.10
2018-12-02T04:53:06.715Z,9.07
2018-12-02T04:55:35.686Z,9.17
2018-12-02T04:58:05.387Z,9.08
2018-12-02T05:00:34.907Z,9.02
2018-12-02T05:03:04.417Z,9.01
2018-12-02T05:05:33.825Z,8.96
2018-12-02T05:08:03.672Z,9.00
2018-12-02T05:10:33.069Z,9.06
2018-12-02T05:13:02.482Z,9.13
2018-12-02T05:15:31.459Z,9.12
2018-12-02T05:18:00.487Z,9.13
2018-12-02T05:20:30.759Z,9.06
2018-12-02T05:22:59.735Z,9.08
2018-12-02T05:25:29.188Z,9.12
2018-12-02T05:27:58.037Z,9.19
2018-12-02T05:30:27.011Z,9.37
2018-12-02T05:32:55.896Z,9.26
2018-12-02T05:35:25.664Z,9.14
2018-12-02T05:37:54.564Z,9.16
2018-12-02T05:40:24.307Z,9.00
2018-12-02T05:42:54.811Z,9.09
2018-12-02T05:45:23.869Z,9.15
2018-12-02T05:47:54.561Z,9.11
2018-12-02T05:50:25.427Z,9.11
2018-12-02T05:52:55.967Z,9.18
2018-12-02T05:55:26.138Z,9.20
2018-12-02T05:57:54.972Z,9.13
2018-12-02T06:00:24.680Z,9.27
2018-12-02T06:02:54.445Z,9.20
2018-12-02T06:05:24.882Z,9.32
2018-12-02T06:07:53.711Z,9.20
2018-12-02T06:10:23.217Z,9.22
2018-12-02T06:12:52.743Z,9.27
2018-12-02T06:15:22.047Z,9.17
2018-12-02T06:17:51.717Z,9.23
2018-12-02T06:20:22.322Z,9.23
2018-12-02T06:22:52.373Z,9.23
2018-12-02T06:25:22.228Z,9.23
2018-12-02T06:27:51.384Z,9.23
2018-12-02T06:30:22.976Z,9.35
2018-12-02T06:32:53.040Z,9.31
2018-12-02T06:35:22.770Z,9.25
2018-12-02T06:37:52.404Z,9.34
2018-12-02T06:40:22.216Z,9.30
2018-12-02T06:42:51.300Z,9.27
2018-12-02T06:45:20.360Z,9.23
2018-12-02T06:47:50.024Z,9.50
2018-12-02T06:50:20.799Z,9.39
2018-12-02T06:52:50.437Z,9.36
2018-12-02T06:55:30.074Z,9.37
2018-12-02T06:58:37.704Z,9.34
2018-12-02T07:01:14.749Z,9.34
2018-12-02T07:04:13.672Z,9.32
2018-12-02T07:06:43.248Z,9.33
2018-12-02T07:09:13.135Z,9.31
2018-12-02T07:11:42.160Z,9.32
2018-12-02T07:14:11.761Z,9.30
2018-12-02T07:16:40.691Z,9.42
2018-12-02T07:19:14.776Z,9.37
2018-12-02T07:21:48.214Z,9.25
2018-12-02T07:24:21.794Z,9.41
2018-12-02T07:26:53.219Z,9.34
2018-12-02T07:29:22.723Z,9.48
2018-12-02T07:31:51.708Z,9.44
2018-12-02T07:34:20.632Z,9.48
2018-12-02T07:36:51.180Z,9.46
2018-12-02T07:39:31.890Z,9.49
2018-12-02T07:41:59.771Z,9.54
2018-12-02T07:44:29.431Z,9.61
2018-12-02T07:46:58.783Z,9.55
2018-12-02T07:49:27.663Z,9.64
2018-12-02T07:51:57.172Z,9.66
2018-12-02T07:54:26.606Z,9.77
2018-12-02T07:56:56.259Z,9.59
2018-12-02T07:59:25.859Z,9.56
2018-12-02T08:01:55.273Z,9.72
2018-12-02T08:04:24.267Z,9.68
2018-12-02T08:06:53.799Z,9.65
2018-12-02T08:09:23.208Z,9.84
2018-12-02T08:11:52.100Z,9.78
2018-12-02T08:14:22.072Z,9.75
2018-12-02T08:16:50.916Z,9.77
2018-12-02T08:19:19.911Z,9.79
2018-12-02T08:21:49.984Z,9.70
2018-12-02T08:24:19.107Z,9.73
2018-12-02T08:26:49.431Z,9.67
2018-12-02T08:29:19.167Z,9.78
2018-12-02T08:31:48.841Z,9.78
2018-12-02T08:34:18.532Z,9.70
2018-12-02T08:36:49.084Z,9.95
2018-12-02T08:39:18.197Z,9.71
2018-12-02T08:41:48.612Z,9.83
2018-12-02T08:44:18.809Z,9.82
2018-12-02T08:46:47.637Z,9.93
2018-12-02T08:49:17.873Z,9.78
2018-12-02T08:51:47.676Z,9.83
2018-12-02T08:54:16.989Z,9.94
2018-12-02T08:56:47.417Z,10.02
2018-12-02T08:59:17.646Z,9.99
2018-12-02T09:01:47.099Z,10.01
2018-12-02T09:04:17.668Z,10.16
2018-12-02T09:06:47.449Z,10.14
2018-12-02T09:09:17.233Z,10.00
2018-12-02T09:11:46.184Z,10.04
2018-12-02T09:14:16.132Z,10.13
2018-12-02T09:16:45.648Z,10.14
2018-12-02T09:19:15.154Z,10.19
2018-12-02T09:21:44.771Z,10.27
2018-12-02T09:24:13.681Z,10.39
2018-12-02T09:26:43.676Z,10.20
2018-12-02T09:29:12.588Z,10.11
2018-12-02T09:31:42.618Z,10.19
2018-12-02T09:34:11.683Z,10.24
2018-12-02T09:36:40.812Z,10.25
2018-12-02T09:39:10.713Z,10.30
2018-12-02T09:41:39.679Z,10.31
2018-12-02T09:44:09.273Z,10.23
2018-12-02T09:46:38.894Z,10.19
2018-12-02T09:49:08.392Z,10.21
2018-12-02T09:51:38.068Z,10.32
2018-12-02T09:54:07.802Z,10.29
2018-12-02T09:56:37.176Z,10.42
2018-12-02T09:59:06.904Z,10.46
2018-12-02T10:01:37.420Z,10.71
2018-12-02T10:04:07.375Z,10.38
2018-12-02T10:06:37.127Z,10.32
2018-12-02T10:09:09.574Z,10.64
2018-12-02T10:11:39.020Z,10.49
2018-12-02T10:14:10.189Z,10.50
2018-12-02T10:16:39.440Z,10.43
2018-12-02T10:19:10.856Z,10.76
2018-12-02T10:21:40.458Z,10.67
2018-12-02T10:24:10.020Z,10.87
2018-12-02T10:26:39.576Z,10.72
2018-12-02T10:29:09.392Z,10.76
2018-12-02T10:31:38.303Z,10.82
2018-12-02T10:34:08.218Z,10.86
2018-12-02T10:36:37.684Z,10.98
2018-12-02T10:39:09.995Z,10.96
2018-12-02T10:41:38.964Z,11.04
2018-12-02T10:44:07.832Z,11.05
2018-12-02T10:46:37.269Z,11.14
2018-12-02T10:49:06.393Z,11.20
2018-12-02T10:51:35.888Z,11.24
2018-12-02T10:54:04.884Z,11.28
2018-12-02T10:56:34.828Z,11.46
2018-12-02T10:59:04.320Z,11.37
2018-12-02T11:01:39.007Z,11.46
2018-12-02T11:04:08.876Z,11.46
2018-12-02T11:06:38.453Z,11.53
2018-12-02T11:09:12.443Z,11.46
2018-12-02T11:11:42.144Z,11.57
2018-12-02T11:14:11.571Z,11.60
2018-12-02T11:16:40.579Z,11.77
2018-12-02T11:19:10.003Z,11.58
2018-12-02T11:21:39.448Z,11.69
2018-12-02T11:24:08.655Z,11.64
2018-12-02T11:26:37.968Z,11.76
2018-12-02T11:29:07.083Z,11.90
2018-12-02T11:31:37.123Z,11.95
2018-12-02T11:34:07.104Z,12.17
2018-12-02T11:36:37.285Z,12.15
2018-12-02T11:39:09.170Z,12.25
2018-12-02T11:41:38.313Z,12.28
2018-12-02T11:44:08.356Z,12.36
2018-12-02T11:46:38.663Z,12.38
2018-12-02T11:49:07.516Z,12.51
2018-12-02T11:51:36.578Z,12.53
2018-12-02T11:54:06.135Z,12.72
2018-12-02T11:56:36.068Z,12.77
2018-12-02T11:59:07.348Z,12.65
2018-12-02T12:01:36.387Z,12.67
2018-12-02T12:04:06.056Z,12.63
2018-12-02T12:06:36.165Z,12.66
2018-12-02T12:09:07.132Z,12.58
2018-12-02T12:11:36.284Z,12.65
2018-12-02T12:14:05.784Z,12.74
2018-12-02T12:16:35.351Z,12.92
2018-12-02T12:19:05.515Z,12.92
2018-12-02T12:21:34.709Z,13.13
2018-12-02T12:24:03.696Z,13.05
2018-12-02T12:26:33.355Z,13.22
2018-12-02T12:29:02.950Z,13.22
2018-12-02T12:31:31.897Z,13.18
2018-12-02T12:34:00.946Z,13.17
2018-12-02T12:36:30.279Z,13.22
2018-12-02T12:38:59.172Z,13.05
2018-12-02T12:41:28.812Z,13.17
2018-12-02T12:43:58.125Z,13.08
2018-12-02T12:46:27.695Z,13.25
2018-12-02T12:48:57.040Z,13.22
2018-12-02T12:51:26.416Z,13.12
2018-12-02T12:53:56.063Z,13.19
2018-12-02T12:56:25.495Z,13.22
2018-12-02T12:58:54.903Z,13.18
2018-12-02T13:01:23.916Z,13.02
2018-12-02T13:03:53.395Z,13.22
2018-12-02T13:06:23.613Z,13.17
2018-12-02T13:08:53.516Z,13.13
2018-12-02T13:11:22.924Z,13.15
2018-12-02T13:13:52.449Z,13.11
2018-12-02T13:16:21.391Z,13.10
2018-12-02T13:18:50.172Z,13.13
2018-12-02T13:21:19.563Z,13.05
2018-12-02T13:23:49.706Z,13.12
2018-12-02T13:26:18.894Z,13.17
2018-12-02T13:28:48.347Z,13.22
2018-12-02T13:31:17.475Z,13.28
2018-12-02T13:33:47.076Z,13.24
2018-12-02T13:36:15.943Z,13.11
2018-12-02T13:38:45.465Z,13.16
2018-12-02T13:41:14.430Z,13.12
2018-12-02T13:43:44.071Z,13.10
2018-12-02T13:46:13.625Z,13.16
2018-12-02T13:48:43.256Z,13.17
2018-12-02T13:51:12.256Z,13.26
2018-12-02T13:53:46.444Z,13.15
2018-12-02T13:56:15.347Z,13.16
2018-12-02T13:58:44.984Z,13.16
2018-12-02T14:01:14.092Z,13.05
2018-12-02T14:03:43.560Z,13.11
2018-12-02T14:06:13.079Z,13.25
2018-12-02T14:08:42.580Z,13.05
2018-12-02T14:11:12.759Z,13.11
2018-12-02T14:13:43.017Z,13.10
2018-12-02T14:16:33.079Z,13.06
2018-12-02T14:19:04.579Z,13.13
2018-12-02T14:21:34.385Z,12.99
2018-12-02T14:24:03.988Z,13.10
2018-12-02T14:26:33.652Z,12.95
2018-12-02T14:29:20.441Z,12.88
2018-12-02T14:31:53.982Z,12.95
2018-12-02T14:34:22.848Z,12.83
2018-12-02T14:36:52.364Z,12.89
2018-12-02T14:39:21.522Z,12.88
2018-12-02T14:41:50.569Z,12.78
2018-12-02T14:44:20.536Z,12.93
2018-12-02T14:46:51.356Z,12.87
2018-12-02T14:49:20.900Z,12.82
2018-12-02T14:51:49.824Z,12.85
2018-12-02T14:54:18.711Z,13.01
2018-12-02T14:56:47.960Z,12.88
2018-12-02T14:59:18.249Z,12.93
2018-12-02T15:01:47.170Z,12.95
2018-12-02T15:04:17.384Z,12.83
2018-12-02T15:06:47.836Z,12.83
2018-12-02T15:09:17.812Z,12.70
2018-12-02T15:11:48.148Z,12.68
2018-12-02T15:14:17.161Z,12.68
2018-12-02T15:16:46.076Z,12.63
2018-12-02T15:19:16.704Z,12.54
2018-12-02T15:21:47.289Z,12.68
2018-12-02T15:24:17.607Z,12.52
2018-12-02T15:26:46.796Z,12.50
2018-12-02T15:29:15.900Z,12.55
2018-12-02T15:31:44.839Z,12.62
2018-12-02T15:34:14.352Z,12.45
2018-12-02T15:36:44.079Z,12.38
2018-12-02T15:39:13.340Z,12.46
2018-12-02T15:41:43.868Z,12.38
2018-12-02T15:44:13.611Z,12.42
2018-12-02T15:46:42.633Z,12.39
2018-12-02T15:49:11.660Z,12.36
2018-12-02T15:51:40.665Z,12.49
2018-12-02T15:54:10.195Z,12.36
2018-12-02T15:56:39.160Z,12.51
2018-12-02T15:59:08.491Z,12.54
2018-12-02T16:01:38.531Z,12.43
2018-12-02T16:04:07.981Z,12.63
2018-12-02T16:06:37.121Z,12.44
2018-12-02T16:09:09.533Z,12.53
2018-12-02T16:11:38.553Z,12.43
2018-12-02T16:14:07.836Z,12.43
2018-12-02T16:16:37.145Z,12.54
2018-12-02T16:19:06.246Z,12.37
2018-12-02T16:21:35.890Z,12.43
2018-12-02T16:24:05.449Z,12.48
2018-12-02T16:26:35.052Z,12.43
2018-12-02T16:29:04.889Z,12.40
2018-12-02T16:31:33.899Z,12.53
2018-12-02T16:34:02.803Z,12.61
2018-12-02T16:36:32.783Z,12.59
2018-12-02T16:39:01.745Z,12.73
2018-12-02T16:41:30.764Z,12.45
2018-12-02T16:44:00.256Z,12.51
2018-12-02T16:46:29.684Z,12.42
2018-12-02T16:48:59.209Z,12.40
2018-12-02T16:51:28.788Z,12.39
2018-12-02T16:53:58.307Z,12.29
2018-12-02T16:56:27.223Z,12.37
2018-12-02T16:59:02.220Z,12.22
2018-12-02T17:01:32.723Z,12.20
2018-12-02T17:04:03.616Z,12.12
2018-12-02T17:06:32.539Z,11.99
2018-12-02T17:09:01.927Z,11.88
2018-12-02T17:11:31.399Z,11.96
2018-12-02T17:14:01.685Z,11.94
2018-12-02T17:16:31.943Z,11.91
2018-12-02T17:19:01.060Z,12.00
2018-12-02T17:21:30.771Z,11.98
2018-12-02T17:23:59.616Z,11.98
2018-12-02T17:26:29.883Z,11.95
2018-12-02T17:29:00.335Z,11.97
2018-12-02T17:31:32.447Z,12.07
2018-12-02T17:34:02.496Z,12.15
2018-12-02T17:36:32.139Z,12.12
2018-12-02T17:39:03.108Z,12.20
2018-12-02T17:41:33.586Z,12.15
2018-12-02T17:44:02.399Z,12.25
2018-12-02T17:46:32.055Z,12.26
2018-12-02T17:49:01.960Z,12.28
2018-12-02T17:51:32.192Z,12.25
2018-12-02T17:54:01.568Z,12.24
2018-12-02T17:56:31.511Z,12.18
2018-12-02T17:59:01.090Z,12.09
2018-12-02T18:01:30.585Z,12.18
2018-12-02T18:04:00.712Z,12.07
2018-12-02T18:06:30.260Z,12.09
2018-12-02T18:09:01.229Z,12.03
2018-12-02T18:11:30.860Z,12.03
2018-12-02T18:14:01.077Z,12.06
2018-12-02T18:16:30.055Z,12.17
2018-12-02T18:18:59.095Z,12.23
2018-12-02T18:21:28.070Z,12.19
2018-12-02T18:23:57.044Z,12.15
2018-12-02T18:26:27.140Z,12.25
2018-12-02T18:28:56.015Z,12.28
2018-12-02T18:31:25.548Z,12.23
2018-12-02T18:33:54.720Z,12.28
2018-12-02T18:36:27.676Z,12.33
2018-12-02T18:38:56.613Z,12.22
2018-12-02T18:41:32.175Z,12.26
2018-12-02T18:44:01.991Z,12.39
2018-12-02T18:46:30.968Z,12.46
2018-12-02T18:48:59.909Z,12.43
2018-12-02T18:51:30.420Z,12.41
2018-12-02T18:54:00.063Z,12.36
2018-12-02T18:56:30.220Z,12.35
2018-12-02T18:59:00.137Z,12.43
2018-12-02T19:01:29.035Z,12.41
2018-12-02T19:03:58.784Z,12.45
2018-12-02T19:06:28.406Z,12.45
2018-12-02T19:08:57.143Z,12.44
2018-12-02T19:11:26.248Z,12.35
2018-12-02T19:13:55.255Z,12.43
2018-12-02T19:16:24.611Z,12.38
2018-12-02T19:18:53.565Z,12.27
2018-12-02T19:21:27.472Z,12.26
2018-12-02T19:23:57.888Z,12.28
2018-12-02T19:26:26.871Z,12.40
2018-12-02T19:28:57.541Z,12.39
2018-12-02T19:31:27.199Z,12.36
2018-12-02T19:33:58.331Z,12.37
2018-12-02T19:36:32.221Z,12.28
2018-12-02T19:39:01.305Z,12.34
2018-12-02T19:41:30.660Z,12.38
2018-12-02T19:43:59.561Z,12.43
2018-12-02T19:46:28.819Z,12.32
2018-12-02T19:48:57.741Z,12.29
2018-12-02T19:51:26.740Z,12.30
2018-12-02T19:53:55.618Z,12.33
2018-12-02T19:56:25.135Z,12.26
2018-12-02T19:58:54.153Z,12.20
2018-12-02T20:01:24.284Z,12.08
2018-12-02T20:03:53.265Z,12.14
2018-12-02T20:06:22.211Z,12.15
2018-12-02T20:08:50.911Z,12.20
2018-12-02T20:11:20.240Z,12.16
2018-12-02T20:13:49.098Z,12.15
2018-12-02T20:16:18.858Z,12.16
2018-12-02T20:18:48.195Z,12.20
2018-12-02T20:21:18.260Z,12.13
2018-12-02T20:23:52.657Z,12.16
2018-12-02T20:26:21.712Z,12.20
2018-12-02T20:28:52.950Z,12.21
2018-12-02T20:31:25.507Z,12.06
2018-12-02T20:33:54.464Z,12.02
2018-12-02T20:36:23.783Z,12.07
2018-12-02T20:38:53.716Z,12.20
2018-12-02T20:41:23.032Z,12.19
2018-12-02T20:43:53.153Z,12.21
2018-12-02T20:46:22.199Z,12.18
2018-12-02T20:48:51.427Z,12.26
2018-12-02T20:51:21.675Z,12.26
2018-12-02T20:53:50.745Z,12.23
2018-12-02T20:56:20.232Z,12.42
2018-12-02T20:58:49.156Z,12.36
2018-12-02T21:01:19.601Z,12.35
2018-12-02T21:03:49.643Z,12.27
2018-12-02T21:06:20.941Z,12.38
2018-12-02T21:08:50.275Z,12.40
2018-12-02T21:11:20.076Z,12.42
2018-12-02T21:13:49.844Z,12.59
2018-12-02T21:16:19.631Z,12.45
2018-12-02T21:18:48.556Z,12.35
2018-12-02T21:21:17.540Z,12.31
2018-12-02T21:23:47.310Z,12.24
2018-12-02T21:26:16.614Z,12.24
2018-12-02T21:28:46.128Z,12.07
2018-12-02T21:31:15.179Z,12.09
2018-12-02T21:33:44.088Z,12.08
2018-12-02T21:36:13.428Z,12.15
2018-12-02T21:38:42.241Z,12.19
2018-12-02T21:41:11.700Z,12.15
2018-12-02T21:43:41.272Z,12.19
2018-12-02T21:46:10.764Z,12.11
2018-12-02T21:48:39.652Z,12.17
2018-12-02T21:51:08.318Z,12.14
2018-12-02T21:53:39.132Z,12.09
2018-12-02T21:56:08.705Z,12.16
2018-12-02T21:58:38.351Z,12.09
2018-12-02T22:01:12.593Z,11.97
2018-12-02T22:03:41.589Z,12.06
2018-12-02T22:06:11.281Z,12.06
2018-12-02T22:08:40.824Z,12.10
2018-12-02T22:11:11.256Z,12.12
2018-12-02T22:13:43.459Z,12.10
2018-12-02T22:16:09.835Z,12.18
2018-12-02T22:18:38.861Z,12.16
2018-12-02T22:21:07.828Z,12.19
2018-12-02T22:23:37.457Z,12.23
2018-12-02T22:26:07.088Z,12.28
2018-12-02T22:28:36.252Z,12.24
2018-12-02T22:31:05.926Z,12.25
2018-12-02T22:33:35.601Z,12.23
2018-12-02T22:36:05.592Z,12.33
2018-12-02T22:38:34.418Z,12.41
2018-12-02T22:41:03.814Z,12.35
2018-12-02T22:43:33.432Z,12.53
2018-12-02T22:46:02.668Z,12.56
2018-12-02T22:48:32.582Z,12.51
2018-12-02T22:51:02.273Z,12.42
2018-12-02T22:53:31.964Z,12.48
2018-12-02T22:56:01.648Z,12.50
2018-12-02T22:58:31.260Z,12.51
2018-12-02T23:01:06.109Z,12.46
2018-12-02T23:03:36.049Z,12.50
2018-12-02T23:06:05.553Z,12.53
2018-12-02T23:08:34.560Z,12.49
2018-12-02T23:11:03.632Z,12.48
2018-12-02T23:13:32.681Z,12.53
2018-12-02T23:16:02.096Z,12.45
2018-12-02T23:18:31.299Z,12.46
2018-12-02T23:21:00.688Z,12.60
2018-12-02T23:23:30.133Z,12.50
2018-12-02T23:25:59.819Z,12.49
2018-12-02T23:28:29.888Z,12.72
2018-12-02T23:30:58.867Z,12.74
2018-12-02T23:33:27.948Z,12.63
2018-12-02T23:35:57.562Z,12.60
2018-12-02T23:38:26.561Z,12.70
2018-12-02T23:40:55.797Z,12.48
2018-12-02T23:43:24.876Z,12.40
2018-12-02T23:45:54.172Z,12.36
2018-12-02T23:48:23.528Z,12.41
2018-12-02T23:50:52.548Z,12.48
2018-12-02T23:53:21.540Z,12.40
2018-12-02T23:55:51.507Z,12.31
2018-12-02T23:58:20.737Z,12.32
